Time;durP1;ratioP1;P1;durP2;ratioP2;P2;SDS_P1;SDS_P2;PMS_P1;PMS_P2;Temp;Humidity;BMP_temperature;BMP_pressure;BME280_temperature;BME280_humidity;BME280_pressure;Samples;Min_cycle;Max_cycle;Signal;HPM_P1;HPM_P2
2023/08/30 00:00:05;;;;;;;5.32;3.70;;;17.60;99.90;;;;;;4079429;29;20459;-60
2023/08/30 00:02:08;;;;;;;7.68;3.95;;;17.60;99.90;;;;;;4079412;29;20113;-64
2023/08/30 00:04:09;;;;;;;7.53;3.53;;;17.70;99.90;;;;;;4080445;29;20047;-61
2023/08/30 00:06:10;;;;;;;8.75;4.90;;;17.70;99.90;;;;;;4079381;29;20055;-62
2023/08/30 00:08:13;;;;;;;4.60;3.47;;;17.70;99.90;;;;;;4080746;29;20468;-60
2023/08/30 00:10:14;;;;;;;4.93;3.92;;;17.70;99.90;;;;;;4079725;29;20126;-62
2023/08/30 00:12:16;;;;;;;5.68;3.83;;;17.70;99.90;;;;;;4080417;29;20516;-64
2023/08/30 00:14:17;;;;;;;5.43;3.83;;;17.90;99.90;;;;;;4079436;29;20043;-65
2023/08/30 00:16:18;;;;;;;4.70;4.00;;;18.00;99.90;;;;;;4080512;29;20485;-62
2023/08/30 00:18:20;;;;;;;6.38;4.38;;;18.10;99.90;;;;;;4079581;29;20016;-64
2023/08/30 00:20:22;;;;;;;5.45;4.00;;;18.20;99.90;;;;;;4080312;29;20107;-61
2023/08/30 00:22:23;;;;;;;6.25;4.25;;;18.20;99.90;;;;;;4079573;29;20051;-66
2023/08/30 00:24:24;;;;;;;4.22;3.30;;;18.40;99.90;;;;;;4079839;29;20496;-64
2023/08/30 00:26:25;;;;;;;7.07;3.70;;;18.40;99.90;;;;;;4079743;29;20036;-62
2023/08/30 00:28:27;;;;;;;5.15;4.07;;;18.40;99.90;;;;;;4081312;29;20126;-66
2023/08/30 00:30:28;;;;;;;5.00;3.20;;;18.30;99.90;;;;;;4083409;29;20099;-62
2023/08/30 00:32:29;;;;;;;5.88;3.67;;;18.30;99.90;;;;;;4082437;29;20091;-62
2023/08/30 00:34:30;;;;;;;4.72;2.80;;;18.30;99.90;;;;;;4083375;29;20539;-64
2023/08/30 00:36:31;;;;;;;7.72;3.75;;;18.30;99.90;;;;;;4082616;29;20036;-65
2023/08/30 00:38:33;;;;;;;4.82;2.80;;;18.20;99.90;;;;;;4083620;29;20131;-66
2023/08/30 00:40:39;;;;;;;2.72;2.25;;;18.10;99.90;;;;;;4082531;29;20436;-64
2023/08/30 00:42:40;;;;;;;4.47;3.05;;;18.10;99.90;;;;;;4083502;29;20476;-62
2023/08/30 00:44:42;;;;;;;5.30;3.78;;;18.20;99.90;;;;;;4082406;29;20027;-63
2023/08/30 00:46:43;;;;;;;4.75;3.63;;;18.10;99.90;;;;;;4082788;29;20051;-63
2023/08/30 00:48:44;;;;;;;5.35;3.33;;;18.10;99.90;;;;;;4082045;29;20102;-65
2023/08/30 00:50:46;;;;;;;4.53;3.60;;;18.00;99.90;;;;;;4081646;29;20047;-61
2023/08/30 00:52:47;;;;;;;5.15;3.08;;;18.00;99.90;;;;;;4082553;29;20024;-65
2023/08/30 00:54:49;;;;;;;2.50;1.95;;;18.00;99.90;;;;;;4083049;29;20031;-66
2023/08/30 00:56:50;;;;;;;3.65;1.80;;;18.00;99.90;;;;;;4082724;29;20417;-67
2023/08/30 00:58:51;;;;;;;2.08;1.30;;;18.10;99.90;;;;;;4082708;29;20043;-64
2023/08/30 01:00:53;;;;;;;3.28;1.92;;;18.30;99.90;;;;;;4082880;29;20040;-65
2023/08/30 01:02:55;;;;;;;4.13;1.50;;;18.30;99.90;;;;;;4082269;29;20036;-63
2023/08/30 01:04:57;;;;;;;1.45;1.35;;;18.30;99.90;;;;;;4081700;29;20047;-65
2023/08/30 01:06:59;;;;;;;1.38;1.27;;;18.30;99.90;;;;;;4081987;29;20056;-64
2023/08/30 01:09:00;;;;;;;2.70;1.70;;;18.20;99.90;;;;;;4082966;29;20102;-65
2023/08/30 01:11:32;;;;;;;3.42;2.33;;;18.20;99.90;;;;;;4082034;29;20088;-65
2023/08/30 01:13:50;;;;;;;2.00;1.80;;;18.10;99.90;;;;;;4083008;29;20095;-64
2023/08/30 01:15:53;;;;;;;3.22;1.92;;;18.00;99.90;;;;;;4081675;29;20047;-64
2023/08/30 01:17:55;;;;;;;3.75;2.08;;;18.00;99.90;;;;;;4082641;29;20048;-64
2023/08/30 01:20:01;;;;;;;4.88;1.92;;;17.90;99.90;;;;;;4081844;29;20196;-65
2023/08/30 01:22:18;;;;;;;2.30;1.90;;;17.80;99.90;;;;;;4083104;29;20161;-65
2023/08/30 01:24:31;;;;;;;3.95;1.60;;;17.80;99.90;;;;;;4081540;29;20804;-66
2023/08/30 01:26:51;;;;;;;3.30;1.58;;;17.70;99.90;;;;;;4082814;29;20095;-64
2023/08/30 01:28:55;;;;;;;2.75;2.13;;;17.60;99.90;;;;;;4081497;29;20091;-66
2023/08/30 01:30:58;;;;;;;4.30;1.83;;;17.60;99.90;;;;;;4082698;29;20028;-65
2023/08/30 01:33:01;;;;;;;2.20;1.75;;;17.60;99.90;;;;;;4081671;29;20040;-65
2023/08/30 01:35:04;;;;;;;2.90;2.03;;;17.60;99.90;;;;;;4082668;29;20047;-65
2023/08/30 01:37:08;;;;;;;4.45;2.47;;;17.60;99.90;;;;;;4081606;29;20475;-65
2023/08/30 01:39:12;;;;;;;3.83;1.90;;;17.60;99.90;;;;;;4082312;29;20548;-65
2023/08/30 01:41:13;;;;;;;2.70;2.20;;;17.60;99.90;;;;;;4081630;29;20024;-64
2023/08/30 01:43:16;;;;;;;3.50;1.83;;;17.60;99.90;;;;;;4082697;29;20436;-61
2023/08/30 01:45:19;;;;;;;2.47;2.10;;;17.60;99.90;;;;;;4081614;29;20047;-65
2023/08/30 01:47:22;;;;;;;2.47;2.00;;;17.60;99.90;;;;;;4082187;29;20138;-65
2023/08/30 01:49:26;;;;;;;3.15;2.33;;;17.60;99.90;;;;;;4081684;29;20028;-65
2023/08/30 01:51:28;;;;;;;2.92;2.30;;;17.60;99.90;;;;;;4082655;29;20472;-67
2023/08/30 01:53:30;;;;;;;4.70;2.30;;;17.60;99.90;;;;;;4081465;29;20071;-65
2023/08/30 01:55:32;;;;;;;3.33;2.45;;;17.50;99.90;;;;;;4082199;29;20027;-63
2023/08/30 01:57:33;;;;;;;4.68;2.90;;;17.50;99.90;;;;;;4081605;29;20043;-64
2023/08/30 01:59:35;;;;;;;6.30;2.95;;;17.50;99.90;;;;;;4082032;29;20039;-62
2023/08/30 02:01:36;;;;;;;3.22;2.92;;;17.50;99.90;;;;;;4081592;29;20039;-63
2023/08/30 02:03:37;;;;;;;4.18;3.20;;;17.50;99.90;;;;;;4081502;29;20106;-63
2023/08/30 02:05:58;;;;;;;4.18;3.20;;;17.50;99.90;;;;;;4082226;29;20087;-62
2023/08/30 02:08:16;;;;;;;3.85;2.65;;;17.40;99.90;;;;;;4081269;29;20044;-65
2023/08/30 02:10:25;;;;;;;2.95;2.63;;;17.40;99.90;;;;;;4081715;29;20547;-63
2023/08/30 02:12:34;;;;;;;3.13;2.83;;;17.40;99.90;;;;;;4081580;29;20044;-63
2023/08/30 02:14:36;;;;;;;2.80;2.30;;;17.40;99.90;;;;;;4081555;29;20027;-64
2023/08/30 02:16:39;;;;;;;4.15;2.90;;;17.40;99.90;;;;;;4080833;29;20464;-63
2023/08/30 02:18:41;;;;;;;3.00;2.80;;;17.30;99.90;;;;;;4081892;29;20083;-63
2023/08/30 02:20:42;;;;;;;3.78;3.08;;;17.30;99.90;;;;;;4080892;29;20496;-66
2023/08/30 02:22:43;;;;;;;3.08;2.78;;;17.30;99.90;;;;;;4082062;29;20032;-65
2023/08/30 02:24:44;;;;;;;5.00;2.50;;;17.30;99.90;;;;;;4080393;29;20055;-61
2023/08/30 02:26:46;;;;;;;6.70;3.55;;;17.40;99.90;;;;;;4081263;29;20118;-61
2023/08/30 02:28:47;;;;;;;4.97;3.10;;;17.30;99.90;;;;;;4080242;29;20032;-64
2023/08/30 02:30:48;;;;;;;2.78;2.50;;;17.40;99.90;;;;;;4081738;29;20043;-61
2023/08/30 02:32:49;;;;;;;5.00;3.10;;;17.30;99.90;;;;;;4079971;29;20075;-65
2023/08/30 02:34:52;;;;;;;3.63;2.90;;;17.40;99.90;;;;;;4081451;29;20114;-62
2023/08/30 02:36:53;;;;;;;3.00;2.70;;;17.40;99.90;;;;;;4080681;29;20095;-64
2023/08/30 02:38:54;;;;;;;4.13;2.78;;;17.40;99.90;;;;;;4081314;29;20486;-63
2023/08/30 02:40:55;;;;;;;3.25;3.00;;;17.40;99.90;;;;;;4080682;29;20019;-66
2023/08/30 02:42:56;;;;;;;3.42;2.97;;;17.40;99.90;;;;;;4081231;29;20032;-66
2023/08/30 02:44:58;;;;;;;4.15;3.00;;;17.40;99.90;;;;;;4080497;29;20048;-67
2023/08/30 02:46:59;;;;;;;2.97;2.67;;;17.40;99.90;;;;;;4080564;29;20448;-65
2023/08/30 02:49:00;;;;;;;3.97;3.15;;;17.40;99.90;;;;;;4081439;29;20521;-64
2023/08/30 02:51:01;;;;;;;4.35;3.22;;;17.40;99.90;;;;;;4079703;29;20087;-66
2023/08/30 02:53:03;;;;;;;4.22;3.05;;;17.50;99.90;;;;;;4081553;29;20036;-62
2023/08/30 02:55:05;;;;;;;5.50;3.47;;;17.50;99.90;;;;;;4080671;29;20023;-62
2023/08/30 02:57:08;;;;;;;4.65;3.15;;;17.40;99.90;;;;;;4081431;29;20511;-65
2023/08/30 02:59:09;;;;;;;4.20;3.47;;;17.50;99.90;;;;;;4080254;29;20044;-66
2023/08/30 03:01:10;;;;;;;4.72;3.60;;;17.50;99.90;;;;;;4080731;29;20200;-66
2023/08/30 03:03:11;;;;;;;6.00;3.80;;;17.50;99.90;;;;;;4080351;29;20086;-66
2023/08/30 03:05:12;;;;;;;3.85;3.30;;;17.50;99.90;;;;;;4081398;29;20103;-66
2023/08/30 03:07:14;;;;;;;3.85;3.45;;;17.50;99.90;;;;;;4080171;29;20488;-62
2023/08/30 03:09:15;;;;;;;9.35;7.43;;;17.50;99.90;;;;;;4081432;29;20421;-66
2023/08/30 03:11:16;;;;;;;14.07;11.05;;;17.50;99.90;;;;;;4079625;29;20437;-66
2023/08/30 03:13:17;;;;;;;18.98;16.98;;;17.60;99.90;;;;;;4081010;29;20027;-65
2023/08/30 03:15:18;;;;;;;7.63;6.07;;;17.60;99.90;;;;;;4080405;29;20028;-65
2023/08/30 03:17:19;;;;;;;6.28;4.82;;;17.70;99.90;;;;;;4080567;29;20461;-66
2023/08/30 03:19:20;;;;;;;4.97;3.42;;;17.70;99.90;;;;;;4080759;29;20374;-64
2023/08/30 03:21:22;;;;;;;4.47;3.45;;;17.70;99.90;;;;;;4080155;29;20421;-65
2023/08/30 03:23:23;;;;;;;3.55;3.22;;;17.70;99.90;;;;;;4079645;29;20047;-66
2023/08/30 03:25:24;;;;;;;4.72;4.30;;;17.70;99.90;;;;;;4080019;29;20031;-62
2023/08/30 03:27:25;;;;;;;15.00;9.63;;;17.70;99.90;;;;;;4080717;29;20095;-65
2023/08/30 03:29:27;;;;;;;7.32;6.50;;;17.70;99.90;;;;;;4079823;29;20035;-67
2023/08/30 03:31:28;;;;;;;5.13;3.80;;;17.70;99.90;;;;;;4080886;29;20107;-64
2023/08/30 03:33:29;;;;;;;5.10;4.13;;;17.70;99.90;;;;;;4079915;29;20800;-64
2023/08/30 03:35:35;;;;;;;5.82;4.03;;;17.70;99.90;;;;;;4080361;29;20062;-66
2023/08/30 03:37:36;;;;;;;4.28;3.30;;;17.70;99.90;;;;;;4079632;29;20087;-65
2023/08/30 03:39:37;;;;;;;5.40;3.30;;;17.70;99.90;;;;;;4080963;29;20051;-65
2023/08/30 03:41:38;;;;;;;4.03;2.80;;;17.60;99.90;;;;;;4079007;29;20039;-62
2023/08/30 03:43:39;;;;;;;6.22;4.38;;;17.60;99.90;;;;;;4080303;29;20072;-67
2023/08/30 03:45:40;;;;;;;6.78;3.35;;;17.50;99.90;;;;;;4079577;29;20429;-66
2023/08/30 03:47:41;;;;;;;5.80;3.50;;;17.50;99.90;;;;;;4080202;29;20481;-66
2023/08/30 03:49:43;;;;;;;4.03;3.05;;;17.50;99.90;;;;;;4080025;29;20040;-65
2023/08/30 03:51:45;;;;;;;5.00;3.10;;;17.50;99.90;;;;;;4079435;29;20044;-67
2023/08/30 03:53:46;;;;;;;3.33;3.00;;;17.50;99.90;;;;;;4080608;29;20083;-65
2023/08/30 03:55:47;;;;;;;6.38;3.22;;;17.50;99.90;;;;;;4079642;29;20078;-66
2023/08/30 03:57:48;;;;;;;6.65;3.25;;;17.50;99.90;;;;;;4080549;29;20111;-64
2023/08/30 03:59:49;;;;;;;3.22;2.92;;;17.50;99.90;;;;;;4079465;29;20103;-66
2023/08/30 04:01:51;;;;;;;5.25;2.88;;;17.40;99.90;;;;;;4081818;29;20043;-67
2023/08/30 04:03:52;;;;;;;6.15;4.32;;;17.40;99.90;;;;;;4082965;29;20107;-63
2023/08/30 04:05:59;;;;;;;4.82;3.40;;;17.40;99.90;;;;;;4083752;29;20444;-67
2023/08/30 04:08:02;;;;;;;6.88;3.15;;;17.50;99.90;;;;;;4082664;29;20119;-66
2023/08/30 04:10:07;;;;;;;4.18;2.72;;;17.40;99.90;;;;;;4083927;29;20082;-61
2023/08/30 04:12:08;;;;;;;5.43;3.13;;;17.40;99.90;;;;;;4082541;29;20024;-62
2023/08/30 04:14:09;;;;;;;4.13;3.72;;;17.50;99.90;;;;;;4083782;29;20035;-61
2023/08/30 04:16:10;;;;;;;4.38;3.10;;;17.50;99.90;;;;;;4082466;29;20043;-66
2023/08/30 04:18:11;;;;;;;4.63;3.13;;;17.50;99.90;;;;;;4082958;29;20099;-66
2023/08/30 04:20:13;;;;;;;5.50;3.15;;;17.50;99.90;;;;;;4082833;29;20059;-65
2023/08/30 04:22:14;;;;;;;7.18;3.17;;;17.50;99.90;;;;;;4081610;29;20091;-62
2023/08/30 04:24:15;;;;;;;4.50;2.85;;;17.50;99.90;;;;;;4083332;29;20288;-62
2023/08/30 04:26:16;;;;;;;7.82;3.58;;;17.50;99.90;;;;;;4081686;29;20105;-64
2023/08/30 04:28:17;;;;;;;3.63;2.70;;;17.50;99.90;;;;;;4083267;29;20039;-62
2023/08/30 04:30:19;;;;;;;3.53;3.20;;;17.50;99.90;;;;;;4082013;29;20039;-63
2023/08/30 04:32:20;;;;;;;3.28;2.92;;;17.60;99.90;;;;;;4083436;29;20087;-63
2023/08/30 04:34:22;;;;;;;4.25;2.67;;;17.50;99.90;;;;;;4082218;29;20055;-61
2023/08/30 04:36:23;;;;;;;4.97;2.60;;;17.60;99.90;;;;;;4082996;29;20051;-61
2023/08/30 04:38:24;;;;;;;3.38;2.50;;;17.60;99.90;;;;;;4082287;29;20070;-61
2023/08/30 04:40:26;;;;;;;2.40;2.17;;;17.60;99.90;;;;;;4083098;29;20095;-65
2023/08/30 04:42:27;;;;;;;3.38;2.20;;;17.60;99.90;;;;;;4081946;29;20182;-64
2023/08/30 04:44:28;;;;;;;3.55;2.63;;;17.60;99.90;;;;;;4081016;29;20044;-63
2023/08/30 04:46:29;;;;;;;6.07;2.67;;;17.60;99.90;;;;;;4081719;29;20496;-61
2023/08/30 04:48:30;;;;;;;2.50;2.30;;;17.60;99.90;;;;;;4082491;29;20032;-64
2023/08/30 04:50:32;;;;;;;4.05;2.30;;;17.60;99.90;;;;;;4082000;29;20036;-62
2023/08/30 04:52:33;;;;;;;3.10;2.50;;;17.60;99.90;;;;;;4082190;29;20099;-62
2023/08/30 04:54:34;;;;;;;3.13;2.70;;;17.60;99.90;;;;;;4082623;29;20568;-64
2023/08/30 04:56:35;;;;;;;3.50;2.63;;;17.60;99.90;;;;;;4082152;29;20456;-62
2023/08/30 04:58:36;;;;;;;5.18;3.22;;;17.60;99.90;;;;;;4083026;29;20469;-62
2023/08/30 05:00:37;;;;;;;3.42;3.13;;;17.60;99.90;;;;;;4081809;29;20444;-61
2023/08/30 05:02:39;;;;;;;3.45;2.53;;;17.60;99.90;;;;;;4082618;29;20043;-60
2023/08/30 05:04:40;;;;;;;3.15;2.60;;;17.70;99.90;;;;;;4081951;29;20131;-63
2023/08/30 05:06:41;;;;;;;3.95;2.83;;;17.70;99.90;;;;;;4082987;29;20028;-60
2023/08/30 05:08:42;;;;;;;5.60;3.17;;;17.80;99.90;;;;;;4081879;29;20020;-60
2023/08/30 05:10:43;;;;;;;3.00;2.20;;;17.90;99.90;;;;;;4082939;29;20428;-61
2023/08/30 05:12:49;;;;;;;4.03;2.50;;;17.90;99.90;;;;;;4081297;29;20036;-61
2023/08/30 05:14:50;;;;;;;5.20;2.78;;;18.00;99.90;;;;;;4082434;29;20028;-65
2023/08/30 05:16:52;;;;;;;5.50;2.88;;;18.00;99.90;;;;;;4081063;29;20091;-64
2023/08/30 05:18:53;;;;;;;4.75;3.13;;;18.00;99.90;;;;;;4082382;29;20090;-65
2023/08/30 05:20:54;;;;;;;3.45;2.67;;;18.00;99.90;;;;;;4081735;29;20542;-62
2023/08/30 05:22:55;;;;;;;3.22;2.33;;;18.10;99.90;;;;;;4081948;29;20405;-63
2023/08/30 05:24:57;;;;;;;4.90;3.67;;;18.30;99.90;;;;;;4081652;29;20080;-63
2023/08/30 05:26:58;;;;;;;2.72;2.40;;;18.20;99.90;;;;;;4081492;29;20036;-62
2023/08/30 05:28:59;;;;;;;3.70;2.55;;;18.30;99.90;;;;;;4082371;29;20138;-65
2023/08/30 05:31:00;;;;;;;2.88;2.40;;;18.30;99.90;;;;;;4081490;29;20083;-61
2023/08/30 05:33:02;;;;;;;4.10;2.47;;;18.30;99.90;;;;;;4082537;29;20903;-61
2023/08/30 05:35:03;;;;;;;6.55;2.70;;;18.30;99.90;;;;;;4080844;29;20052;-63
2023/08/30 05:37:04;;;;;;;7.22;2.78;;;18.30;99.90;;;;;;4081929;29;20048;-61
2023/08/30 05:39:06;;;;;;;5.40;2.92;;;18.40;99.90;;;;;;4081203;29;20028;-64
2023/08/30 05:41:07;;;;;;;6.10;3.38;;;18.40;99.90;;;;;;4081772;29;20039;-61
2023/08/30 05:43:09;;;;;;;3.75;2.55;;;18.40;99.90;;;;;;4081249;29;20099;-62
2023/08/30 05:45:10;;;;;;;3.45;2.38;;;18.40;99.90;;;;;;4082585;29;20178;-62
2023/08/30 05:47:14;;;;;;;4.55;2.35;;;18.50;99.90;;;;;;4080812;29;20534;-62
2023/08/30 05:49:16;;;;;;;4.53;2.40;;;18.60;99.90;;;;;;4081912;29;20103;-65
2023/08/30 05:51:17;;;;;;;2.40;2.20;;;18.80;99.90;;;;;;4081016;29;20039;-64
2023/08/30 05:53:18;;;;;;;2.53;2.22;;;19.00;99.90;;;;;;4081631;29;20019;-64
2023/08/30 05:55:20;;;;;;;3.53;2.08;;;19.00;99.90;;;;;;4081579;29;20122;-65
2023/08/30 05:57:22;;;;;;;4.47;2.22;;;19.10;99.90;;;;;;4081454;29;20082;-67
2023/08/30 05:59:23;;;;;;;2.13;1.90;;;19.20;99.90;;;;;;4081871;29;20020;-64
2023/08/30 06:01:24;;;;;;;2.67;2.42;;;19.20;99.90;;;;;;4080878;29;20176;-60
2023/08/30 06:03:25;;;;;;;2.35;1.95;;;19.20;99.90;;;;;;4082245;29;20094;-64
2023/08/30 06:05:27;;;;;;;5.72;4.15;;;19.20;99.90;;;;;;4081030;29;20044;-62
2023/08/30 06:07:28;;;;;;;4.78;2.00;;;19.30;99.90;;;;;;4081934;29;20102;-63
2023/08/30 06:09:29;;;;;;;4.82;2.53;;;19.40;99.90;;;;;;4080393;29;20043;-62
2023/08/30 06:11:30;;;;;;;4.20;2.53;;;19.30;99.90;;;;;;4081464;29;20075;-63
2023/08/30 06:13:31;;;;;;;3.13;2.33;;;19.20;99.90;;;;;;4080611;29;20036;-63
2023/08/30 06:15:33;;;;;;;5.63;2.38;;;19.30;99.90;;;;;;4081449;29;20047;-65
2023/08/30 06:17:34;;;;;;;3.50;2.40;;;19.20;99.90;;;;;;4080703;29;20031;-66
2023/08/30 06:19:35;;;;;;;3.63;2.55;;;19.20;99.90;;;;;;4081905;29;20040;-67
2023/08/30 06:21:36;;;;;;;6.90;2.70;;;19.20;99.90;;;;;;4080154;29;20423;-66
2023/08/30 06:23:38;;;;;;;2.63;2.42;;;19.30;99.90;;;;;;4081164;29;20071;-62
2023/08/30 06:25:39;;;;;;;4.22;2.38;;;19.50;99.90;;;;;;4080850;29;20555;-64
2023/08/30 06:27:57;;;;;;;2.67;1.92;;;19.60;99.90;;;;;;4080893;29;20598;-62
2023/08/30 06:29:58;;;;;;;2.00;1.80;;;19.60;99.90;;;;;;4081094;29;20087;-66
2023/08/30 06:31:59;;;;;;;2.30;1.70;;;19.60;99.90;;;;;;4080593;29;20043;-63
2023/08/30 06:34:00;;;;;;;2.25;1.67;;;19.70;99.90;;;;;;4081122;29;20468;-64
2023/08/30 06:36:02;;;;;;;2.65;1.98;;;19.80;99.90;;;;;;4080210;29;20552;-65
2023/08/30 06:38:03;;;;;;;3.85;1.60;;;19.80;99.90;;;;;;4080787;29;20127;-64
2023/08/30 06:40:05;;;;;;;3.03;1.38;;;20.00;99.90;;;;;;4080254;29;20032;-64
2023/08/30 06:42:06;;;;;;;1.50;1.40;;;20.00;99.90;;;;;;4081170;29;20028;-64
2023/08/30 06:44:07;;;;;;;2.60;1.73;;;19.90;99.90;;;;;;4080104;29;20051;-64
2023/08/30 06:46:09;;;;;;;2.38;1.52;;;20.00;99.90;;;;;;4081013;29;20552;-64
2023/08/30 06:48:10;;;;;;;1.65;1.27;;;20.00;99.90;;;;;;4079860;29;20555;-67
2023/08/30 06:50:11;;;;;;;3.53;1.33;;;20.10;99.90;;;;;;4081428;29;20051;-61
2023/08/30 06:52:13;;;;;;;3.20;1.27;;;20.20;99.90;;;;;;4080112;29;20516;-64
2023/08/30 06:54:14;;;;;;;2.53;1.45;;;20.30;99.90;;;;;;4081108;29;20031;-64
2023/08/30 06:56:15;;;;;;;1.35;1.25;;;20.40;99.90;;;;;;4080016;29;20095;-66
2023/08/30 06:58:16;;;;;;;1.95;1.30;;;20.60;99.90;;;;;;4080446;29;20075;-62
2023/08/30 07:00:17;;;;;;;1.80;1.00;;;20.70;99.90;;;;;;4079768;29;20114;-65
2023/08/30 07:02:19;;;;;;;3.80;1.15;;;20.80;99.90;;;;;;4080267;29;20098;-66
2023/08/30 07:04:20;;;;;;;1.95;1.45;;;20.90;99.90;;;;;;4080308;29;20027;-64
2023/08/30 07:06:21;;;;;;;0.77;0.77;;;21.10;99.90;;;;;;4079870;29;20063;-61
2023/08/30 07:08:22;;;;;;;0.95;0.90;;;21.20;99.90;;;;;;4080907;29;20386;-63
2023/08/30 07:10:23;;;;;;;3.25;1.20;;;21.20;99.90;;;;;;4079775;29;20040;-60
2023/08/30 07:12:25;;;;;;;1.33;0.95;;;21.20;99.90;;;;;;4080775;29;20118;-66
2023/08/30 07:14:26;;;;;;;2.35;1.27;;;21.40;99.90;;;;;;4079692;29;20449;-64
2023/08/30 07:16:27;;;;;;;1.52;1.30;;;21.50;99.90;;;;;;4079970;29;20082;-61
2023/08/30 07:18:29;;;;;;;1.52;1.35;;;21.80;99.90;;;;;;4079586;29;20098;-62
2023/08/30 07:20:30;;;;;;;1.55;1.45;;;22.00;99.90;;;;;;4080469;29;20095;-65
2023/08/30 07:22:31;;;;;;;1.55;0.95;;;22.10;99.90;;;;;;4079567;29;20032;-61
2023/08/30 07:24:32;;;;;;;2.25;1.17;;;22.30;99.90;;;;;;4080665;29;20362;-62
2023/08/30 07:26:33;;;;;;;2.50;1.00;;;22.40;99.90;;;;;;4079277;29;20102;-65
2023/08/30 07:28:34;;;;;;;1.35;1.02;;;22.50;99.90;;;;;;4080194;29;20051;-66
2023/08/30 07:30:36;;;;;;;0.70;0.70;;;22.50;99.90;;;;;;4079682;29;20106;-65
2023/08/30 07:32:37;;;;;;;1.05;0.88;;;22.60;99.90;;;;;;4078248;29;20052;-65
2023/08/30 07:34:39;;;;;;;0.77;0.50;;;22.80;99.90;;;;;;4080210;29;20023;-65
2023/08/30 07:36:40;;;;;;;1.25;0.60;;;22.90;99.90;;;;;;4078750;29;20090;-64
2023/08/30 07:38:41;;;;;;;0.70;0.70;;;23.00;99.90;;;;;;4080247;29;20032;-65
2023/08/30 07:40:43;;;;;;;4.70;0.77;;;23.10;99.90;;;;;;4079359;29;20051;-67
2023/08/30 07:42:44;;;;;;;0.80;0.65;;;23.30;99.90;;;;;;4080062;29;20405;-67
2023/08/30 07:44:45;;;;;;;1.92;0.93;;;23.30;99.90;;;;;;4078517;29;20043;-67
2023/08/30 07:46:46;;;;;;;0.70;0.60;;;23.30;99.90;;;;;;4080166;29;20456;-66
2023/08/30 07:48:47;;;;;;;1.52;0.80;;;23.10;99.90;;;;;;4079252;29;20052;-63
2023/08/30 07:50:48;;;;;;;1.95;1.02;;;23.00;99.90;;;;;;4080269;29;20453;-67
2023/08/30 07:52:49;;;;;;;0.73;0.60;;;22.90;99.90;;;;;;4077808;29;20103;-67
2023/08/30 07:54:50;;;;;;;2.28;0.90;;;23.00;99.90;;;;;;4080178;29;20551;-65
2023/08/30 07:56:52;;;;;;;1.38;0.70;;;23.10;99.90;;;;;;4079517;29;20472;-65
2023/08/30 07:58:54;;;;;;;1.15;0.47;;;23.20;99.90;;;;;;4080018;29;20040;-63
2023/08/30 08:00:55;;;;;;;1.05;0.80;;;23.30;99.90;;;;;;4079124;29;20082;-68
2023/08/30 08:02:56;;;;;;;1.50;0.63;;;23.50;99.90;;;;;;4079990;29;20083;-67
2023/08/30 08:04:57;;;;;;;0.63;0.63;;;23.40;99.90;;;;;;4079866;29;20024;-62
2023/08/30 08:06:58;;;;;;;1.33;0.77;;;23.30;99.90;;;;;;4079177;29;20043;-63
2023/08/30 08:08:59;;;;;;;1.67;0.60;;;23.30;99.90;;;;;;4080148;29;20115;-63
2023/08/30 08:11:01;;;;;;;2.25;0.93;;;23.30;99.90;;;;;;4078979;29;20142;-65
2023/08/30 08:13:03;;;;;;;2.75;1.60;;;23.10;99.90;;;;;;4080507;29;20032;-62
2023/08/30 08:15:05;;;;;;;2.80;0.90;;;23.00;99.90;;;;;;4079056;29;20110;-65
2023/08/30 08:17:06;;;;;;;1.10;0.65;;;22.80;99.90;;;;;;4080528;29;20099;-63
2023/08/30 08:19:07;;;;;;;1.88;1.10;;;22.70;99.90;;;;;;4078942;29;20039;-63
2023/08/30 08:21:08;;;;;;;1.20;1.08;;;22.60;99.90;;;;;;4080457;29;20035;-66
2023/08/30 08:23:10;;;;;;;3.33;1.13;;;22.40;99.90;;;;;;4078978;29;20378;-59
2023/08/30 08:25:11;;;;;;;1.00;0.90;;;22.40;99.90;;;;;;4080132;29;20119;-66
2023/08/30 08:27:14;;;;;;;1.35;1.00;;;22.20;99.90;;;;;;4078827;29;20040;-62
2023/08/30 08:29:15;;;;;;;2.90;0.63;;;22.10;99.90;;;;;;4079915;29;20421;-61
2023/08/30 08:31:16;;;;;;;2.15;1.33;;;22.20;99.90;;;;;;4079335;29;20036;-62
2023/08/30 08:33:18;;;;;;;4.78;0.82;;;22.20;99.90;;;;;;4079297;29;20107;-61
2023/08/30 08:35:19;;;;;;;0.98;0.93;;;22.10;99.90;;;;;;4079234;29;20095;-62
2023/08/30 08:37:21;;;;;;;2.00;0.88;;;22.10;99.90;;;;;;4079129;29;20540;-62
2023/08/30 08:39:22;;;;;;;3.40;0.85;;;22.20;99.90;;;;;;4079414;29;20175;-62
2023/08/30 08:41:31;;;;;;;2.15;0.90;;;22.10;99.90;;;;;;4078221;29;20039;-62
2023/08/30 08:43:35;;;;;;;1.13;0.98;;;22.20;99.90;;;;;;4080056;29;20587;-62
2023/08/30 08:45:36;;;;;;;2.97;1.10;;;22.10;99.90;;;;;;4078374;29;20043;-63
2023/08/30 08:47:38;;;;;;;0.85;0.82;;;22.10;99.90;;;;;;4078537;29;20040;-64
2023/08/30 08:49:39;;;;;;;1.92;1.13;;;22.20;99.90;;;;;;4080747;29;20036;-62
2023/08/30 08:51:42;;;;;;;3.08;1.30;;;22.10;99.90;;;;;;4083031;29;20019;-62
2023/08/30 08:53:44;;;;;;;3.05;1.10;;;22.20;99.90;;;;;;4080172;29;20444;-62
2023/08/30 08:55:47;;;;;;;1.75;1.15;;;22.20;99.90;;;;;;4082997;29;20091;-63
2023/08/30 08:57:48;;;;;;;1.50;1.25;;;22.20;99.90;;;;;;4081480;29;20048;-62
2023/08/30 08:59:50;;;;;;;1.55;1.33;;;22.10;99.90;;;;;;4082497;29;20055;-62
2023/08/30 09:01:52;;;;;;;3.30;1.90;;;21.90;99.90;;;;;;4081348;29;20103;-61
2023/08/30 09:03:53;;;;;;;3.17;1.83;;;21.70;99.90;;;;;;4082031;29;20040;-63
2023/08/30 09:05:55;;;;;;;5.57;1.73;;;21.60;99.90;;;;;;4081657;29;20469;-61
2023/08/30 09:07:56;;;;;;;3.72;1.83;;;21.50;99.90;;;;;;4081731;29;20036;-61
2023/08/30 09:09:58;;;;;;;4.00;2.28;;;21.30;99.90;;;;;;4081846;29;20092;-63
2023/08/30 09:11:59;;;;;;;3.03;1.83;;;21.30;99.90;;;;;;4080811;29;20047;-66
2023/08/30 09:14:01;;;;;;;6.95;2.47;;;21.20;99.90;;;;;;4081833;29;20040;-60
2023/08/30 09:16:02;;;;;;;2.80;2.00;;;21.10;99.90;;;;;;4080771;29;20035;-61
2023/08/30 09:18:04;;;;;;;4.13;2.33;;;21.10;99.90;;;;;;4082111;29;20441;-61
2023/08/30 09:20:10;;;;;;;5.93;2.03;;;21.10;99.90;;;;;;4081072;29;20556;-62
2023/08/30 09:22:11;;;;;;;1.75;1.65;;;21.00;99.90;;;;;;4082325;29;20110;-62
2023/08/30 09:24:12;;;;;;;2.17;1.98;;;21.00;99.90;;;;;;4081263;29;20456;-62
2023/08/30 09:26:13;;;;;;;1.52;1.42;;;21.00;99.90;;;;;;4080840;29;20095;-62
2023/08/30 09:28:15;;;;;;;2.08;1.73;;;20.90;99.90;;;;;;4080594;29;20448;-62
2023/08/30 09:30:26;;;;;;;1.77;1.55;;;20.90;99.90;;;;;;4082298;29;20036;-62
2023/08/30 09:32:27;;;;;;;1.35;1.20;;;20.90;99.90;;;;;;4081429;29;20039;-62
2023/08/30 09:34:28;;;;;;;2.33;1.50;;;20.80;99.90;;;;;;4082402;29;20087;-63
2023/08/30 09:36:40;;;;;;;1.80;1.20;;;20.80;99.90;;;;;;4081101;29;20036;-62
2023/08/30 09:38:47;;;;;;;3.15;1.40;;;20.70;99.90;;;;;;4082092;29;20198;-62
2023/08/30 09:40:48;;;;;;;2.25;1.67;;;20.70;99.90;;;;;;4080876;29;20773;-63
2023/08/30 09:42:50;;;;;;;2.90;1.50;;;20.60;99.90;;;;;;4081747;29;20059;-62
2023/08/30 09:44:51;;;;;;;3.70;1.55;;;20.60;99.90;;;;;;4081099;29;20024;-62
2023/08/30 09:46:54;;;;;;;3.25;1.70;;;20.60;99.90;;;;;;4080785;29;20334;-66
2023/08/30 09:48:55;;;;;;;3.53;1.98;;;20.60;99.90;;;;;;4081221;29;20132;-62
2023/08/30 09:50:58;;;;;;;3.78;1.90;;;20.60;99.90;;;;;;4080920;29;20571;-64
2023/08/30 09:53:04;;;;;;;2.20;1.92;;;20.60;99.90;;;;;;4081640;29;20051;-65
2023/08/30 09:55:05;;;;;;;2.92;1.77;;;20.70;99.90;;;;;;4080712;29;20099;-63
2023/08/30 09:57:07;;;;;;;2.08;1.90;;;20.80;99.90;;;;;;4081265;29;20102;-68
2023/08/30 09:59:11;;;;;;;2.08;1.88;;;20.90;99.90;;;;;;4080417;29;20377;-64
2023/08/30 10:01:12;;;;;;;2.40;2.08;;;21.10;99.90;;;;;;4081493;29;20040;-63
2023/08/30 10:03:13;;;;;;;6.30;2.22;;;21.30;99.90;;;;;;4080399;29;20197;-63
2023/08/30 10:05:15;;;;;;;10.15;3.25;;;21.50;99.90;;;;;;4081669;29;20035;-61
2023/08/30 10:07:18;;;;;;;2.97;2.05;;;21.80;99.90;;;;;;4080202;29;20051;-61
2023/08/30 10:09:20;;;;;;;2.38;1.95;;;22.10;99.90;;;;;;4081257;29;20051;-63
2023/08/30 10:11:21;;;;;;;3.53;1.63;;;22.20;99.90;;;;;;4080475;29;20111;-62
2023/08/30 10:13:23;;;;;;;2.13;1.80;;;22.30;99.90;;;;;;4081649;29;20086;-61
2023/08/30 10:15:27;;;;;;;3.80;1.83;;;22.30;99.90;;;;;;4080103;29;20094;-62
2023/08/30 10:17:31;;;;;;;3.65;1.83;;;22.40;99.90;;;;;;4081291;29;20460;-62
2023/08/30 10:19:34;;;;;;;3.88;1.77;;;22.30;99.90;;;;;;4080555;29;20051;-61
2023/08/30 10:21:37;;;;;;;3.38;1.75;;;22.30;99.90;;;;;;4080766;29;20035;-64
2023/08/30 10:23:39;;;;;;;3.65;1.95;;;22.40;99.90;;;;;;4080261;29;20556;-61
2023/08/30 10:25:42;;;;;;;3.78;1.70;;;22.40;99.90;;;;;;4080526;29;20024;-60
2023/08/30 10:27:48;;;;;;;2.67;1.50;;;22.50;99.90;;;;;;4080851;29;20393;-61
2023/08/30 10:29:51;;;;;;;6.28;1.90;;;22.50;99.90;;;;;;4080168;29;20039;-63
2023/08/30 10:31:52;;;;;;;2.00;1.80;;;22.50;99.90;;;;;;4081048;29;20024;-63
2023/08/30 10:33:55;;;;;;;2.33;1.52;;;22.50;99.90;;;;;;4079934;29;20035;-61